createdAt,value
2019-03-20T00:00:35.125Z,947.8
2019-03-20T00:01:44.840Z,947.8
2019-03-20T00:02:44.755Z,947.8
2019-03-20T00:03:44.675Z,947.8
2019-03-20T00:04:50.910Z,947.7
2019-03-20T00:05:50.797Z,947.8
2019-03-20T00:06:50.690Z,947.8
2019-03-20T00:07:50.574Z,946.1
2019-03-20T00:08:50.482Z,947.8
2019-03-20T00:09:50.376Z,947.6
2019-03-20T00:10:50.279Z,947.5
2019-03-20T00:11:50.614Z,947.8
2019-03-20T00:12:50.513Z,947.1
2019-03-20T00:13:50.423Z,947.7
2019-03-20T00:14:50.320Z,947
2019-03-20T00:15:50.242Z,947.8
2019-03-20T00:16:50.139Z,947.9
2019-03-20T00:17:50.033Z,947.2
2019-03-20T00:18:49.927Z,947.7
2019-03-20T00:19:49.838Z,946
2019-03-20T00:20:49.724Z,947.7
2019-03-20T00:21:50.029Z,947.8
2019-03-20T00:22:49.927Z,947.8
2019-03-20T00:23:49.829Z,947.9
2019-03-20T00:24:49.762Z,947.7
2019-03-20T00:25:49.663Z,947.6
2019-03-20T00:26:49.550Z,947.9
2019-03-20T00:27:51.444Z,947.9
2019-03-20T00:28:51.346Z,947.8
2019-03-20T00:29:51.271Z,947.8
2019-03-20T00:30:51.153Z,947.7
2019-03-20T00:31:51.465Z,947.8
2019-03-20T00:32:51.373Z,947.8
2019-03-20T00:33:51.255Z,947.6
2019-03-20T00:35:02.258Z,947.8
2019-03-20T00:36:02.176Z,947.8
2019-03-20T00:37:02.064Z,947.7
2019-03-20T00:38:01.987Z,947.8
2019-03-20T00:39:01.890Z,947.8
2019-03-20T00:40:01.769Z,947.8
2019-03-20T00:41:01.678Z,947.7
2019-03-20T00:42:02.001Z,947.8
2019-03-20T00:43:01.898Z,947.7
2019-03-20T00:44:01.790Z,947.8
2019-03-20T00:45:01.689Z,946
2019-03-20T00:46:01.601Z,947.8
2019-03-20T00:47:01.479Z,947.6
2019-03-20T00:48:01.359Z,947.9
2019-03-20T00:49:01.270Z,947.7
2019-03-20T00:50:01.200Z,947.6
2019-03-20T00:51:01.119Z,947.8
2019-03-20T00:52:01.464Z,947.7
2019-03-20T00:53:01.374Z,947.8
2019-03-20T00:54:01.255Z,947.7
2019-03-20T00:55:01.246Z,947.7
2019-03-20T00:56:01.133Z,947.5
2019-03-20T00:57:01.067Z,947.7
2019-03-20T00:58:01.011Z,947.8
2019-03-20T00:59:00.945Z,947.6
2019-03-20T01:00:01.062Z,947.8
2019-03-20T01:01:00.959Z,947.6
2019-03-20T01:02:01.290Z,947.7
2019-03-20T01:03:01.194Z,947.8
2019-03-20T01:04:01.115Z,947.8
2019-03-20T01:05:13.516Z,947.8
2019-03-20T01:06:13.423Z,947.8
2019-03-20T01:07:13.318Z,947.8
2019-03-20T01:08:13.220Z,947.8
2019-03-20T01:09:13.106Z,947.8
2019-03-20T01:10:13.003Z,947.7
2019-03-20T01:11:12.932Z,947.8
2019-03-20T01:12:13.245Z,947.8
2019-03-20T01:13:13.131Z,947.7
2019-03-20T01:14:13.035Z,947.8
2019-03-20T01:15:12.914Z,947.8
2019-03-20T01:16:12.822Z,947.8
2019-03-20T01:17:12.716Z,947.8
2019-03-20T01:18:12.646Z,947.8
2019-03-20T01:19:12.540Z,947.6
2019-03-20T01:20:12.442Z,947.5
2019-03-20T01:21:12.341Z,947.6
2019-03-20T01:22:12.668Z,947.5
2019-03-20T01:23:12.560Z,947.6
2019-03-20T01:24:12.452Z,947.6
2019-03-20T01:25:12.330Z,947.6
2019-03-20T01:26:15.054Z,947.5
2019-03-20T01:27:14.973Z,947.7
2019-03-20T01:28:14.874Z,947.7
2019-03-20T01:29:14.754Z,947.6
2019-03-20T01:30:14.696Z,947.7
2019-03-20T01:31:14.621Z,947.7
2019-03-20T01:32:14.954Z,947.7
2019-03-20T01:33:14.877Z,947.6
2019-03-20T01:34:14.761Z,947.6
2019-03-20T01:35:25.000Z,947.5
2019-03-20T01:36:24.909Z,947.6
2019-03-20T01:37:24.825Z,947.5
2019-03-20T01:38:24.814Z,947.5
2019-03-20T01:39:24.718Z,947.6
2019-03-20T01:40:24.642Z,947.7
2019-03-20T01:41:24.530Z,947.6
2019-03-20T01:42:24.864Z,947.6
2019-03-20T01:43:24.809Z,947.5
2019-03-20T01:44:24.704Z,947.6
2019-03-20T01:45:24.621Z,947.6
2019-03-20T01:46:24.506Z,947.4
2019-03-20T01:47:24.392Z,947.4
2019-03-20T01:48:24.300Z,947.4
2019-03-20T01:49:24.266Z,947.6
2019-03-20T01:50:24.149Z,947.4
2019-03-20T01:51:24.046Z,947.5
2019-03-20T01:52:24.345Z,947.5
2019-03-20T01:53:24.238Z,947.4
2019-03-20T01:54:24.142Z,947.3
2019-03-20T01:55:24.022Z,947.5
2019-03-20T01:56:23.922Z,947.5
2019-03-20T01:57:23.805Z,947.5
2019-03-20T01:58:23.706Z,947.5
2019-03-20T01:59:23.610Z,947.5
2019-03-20T02:00:23.520Z,947.5
2019-03-20T02:01:23.441Z,947.5
2019-03-20T02:02:23.774Z,947.5
2019-03-20T02:03:23.510Z,947.5
2019-03-20T02:04:23.311Z,947.3
2019-03-20T02:05:23.054Z,947.4
2019-03-20T02:06:22.784Z,947.3
2019-03-20T02:07:22.544Z,947.5
2019-03-20T02:08:22.274Z,947.5
2019-03-20T02:09:22.002Z,947.5
2019-03-20T02:10:21.759Z,947.5
2019-03-20T02:11:21.490Z,947.4
2019-03-20T02:12:21.646Z,947.6
2019-03-20T02:13:21.377Z,947.5
2019-03-20T02:14:21.114Z,947.5
2019-03-20T02:15:20.865Z,947.6
2019-03-20T02:16:20.590Z,947.3
2019-03-20T02:17:20.313Z,947.5
2019-03-20T02:18:20.044Z,947.5
2019-03-20T02:19:19.768Z,947.5
2019-03-20T02:20:19.525Z,947.5
2019-03-20T02:21:19.254Z,947.4
2019-03-20T02:22:19.583Z,947.4
2019-03-20T02:23:19.474Z,947.4
2019-03-20T02:24:19.384Z,947.4
2019-03-20T02:25:19.274Z,947.4
2019-03-20T02:26:19.169Z,947.3
2019-03-20T02:27:19.069Z,947.3
2019-03-20T02:28:18.972Z,947.3
2019-03-20T02:29:18.909Z,947.3
2019-03-20T02:30:18.978Z,947.4
2019-03-20T02:31:19.021Z,947.3
2019-03-20T02:32:19.394Z,946.1
2019-03-20T02:33:19.150Z,947.4
2019-03-20T02:34:18.904Z,947.4
2019-03-20T02:35:18.691Z,947.3
2019-03-20T02:36:18.442Z,947.4
2019-03-20T02:37:18.200Z,947.4
2019-03-20T02:38:17.981Z,947.3
2019-03-20T02:39:17.770Z,947.5
2019-03-20T02:40:17.591Z,947.3
2019-03-20T02:41:17.352Z,947.4
2019-03-20T02:42:17.721Z,947.5
2019-03-20T02:43:17.628Z,947.5
2019-03-20T02:44:17.556Z,947.5
2019-03-20T02:45:17.552Z,947.5
2019-03-20T02:46:17.460Z,947.5
2019-03-20T02:47:17.406Z,947.4
2019-03-20T02:48:17.318Z,947.4
2019-03-20T02:49:17.262Z,947.4
2019-03-20T02:50:17.170Z,947.4
2019-03-20T02:51:17.093Z,947.4
2019-03-20T02:52:17.487Z,947.4
2019-03-20T02:53:17.396Z,947.5
2019-03-20T02:54:17.339Z,947.5
2019-03-20T02:55:17.247Z,947.4
2019-03-20T02:56:17.252Z,947.4
2019-03-20T02:57:18.471Z,947.4
2019-03-20T02:58:18.366Z,947.3
2019-03-20T02:59:18.283Z,947.3
2019-03-20T03:00:18.272Z,947.3
2019-03-20T03:01:18.209Z,947.3
2019-03-20T03:02:18.552Z,947.2
2019-03-20T03:03:18.548Z,947.4
2019-03-20T03:04:18.505Z,947.4
2019-03-20T03:05:18.455Z,947.4
2019-03-20T03:06:18.372Z,947.2
2019-03-20T03:07:18.298Z,947.4
2019-03-20T03:08:18.182Z,947.2
2019-03-20T03:09:18.099Z,947.4
2019-03-20T03:10:18.298Z,947.4
2019-03-20T03:11:18.211Z,947
2019-03-20T03:12:18.591Z,947.4
2019-03-20T03:13:18.548Z,947.3
2019-03-20T03:14:18.438Z,945.6
2019-03-20T03:15:18.386Z,947.3
2019-03-20T03:16:18.315Z,947.4
2019-03-20T03:17:18.215Z,947.3
2019-03-20T03:18:18.162Z,947.3
2019-03-20T03:19:18.075Z,947.3
2019-03-20T03:20:18.057Z,947.2
2019-03-20T03:21:17.963Z,947.2
2019-03-20T03:22:18.328Z,947.4
2019-03-20T03:23:18.339Z,947.3
2019-03-20T03:24:18.272Z,947.4
2019-03-20T03:25:18.267Z,947.4
2019-03-20T03:26:18.169Z,947.3
2019-03-20T03:27:17.912Z,947.2
2019-03-20T03:28:17.837Z,947.4
2019-03-20T03:29:17.806Z,947.3
2019-03-20T03:30:18.648Z,946.1
2019-03-20T03:31:18.716Z,947.3
2019-03-20T03:32:19.160Z,947.2
2019-03-20T03:33:19.149Z,947.4
2019-03-20T03:34:19.324Z,947.4
2019-03-20T03:35:21.208Z,947.4
2019-03-20T03:36:22.803Z,947.3
2019-03-20T03:37:22.759Z,947.3
2019-03-20T03:38:22.673Z,947.3
2019-03-20T03:39:22.629Z,947.4
2019-03-20T03:40:22.544Z,947.4
2019-03-20T03:41:22.487Z,947.4
2019-03-20T03:42:22.912Z,947.2
2019-03-20T03:43:25.445Z,947.4
2019-03-20T03:44:25.452Z,947.4
2019-03-20T03:45:25.347Z,947.4
2019-03-20T03:46:25.253Z,947.3
2019-03-20T03:47:25.165Z,947.4
2019-03-20T03:48:25.107Z,947.2
2019-03-20T03:49:25.127Z,946.7
2019-03-20T03:50:25.087Z,947.3
2019-03-20T03:51:24.997Z,947.3
2019-03-20T03:52:25.365Z,947.3
2019-03-20T03:53:25.265Z,946.6
2019-03-20T03:54:25.274Z,947.3
2019-03-20T03:55:25.195Z,947.3
2019-03-20T03:56:25.125Z,947.2
2019-03-20T03:57:25.040Z,947.2
2019-03-20T03:58:24.970Z,947.3
2019-03-20T03:59:24.917Z,947.3
2019-03-20T04:00:24.853Z,947.2
2019-03-20T04:01:24.877Z,947.2
2019-03-20T04:02:25.226Z,947.3
2019-03-20T04:03:25.142Z,947.3
2019-03-20T04:04:25.066Z,947.4
2019-03-20T04:05:24.998Z,947.5
2019-03-20T04:06:36.733Z,947.4
2019-03-20T04:07:36.673Z,947.4
2019-03-20T04:08:36.401Z,947.3
2019-03-20T04:09:36.143Z,947.4
2019-03-20T04:10:35.878Z,947.4
2019-03-20T04:11:35.613Z,947.4
2019-03-20T04:12:35.926Z,945.8
2019-03-20T04:13:35.826Z,947.3
2019-03-20T04:14:35.760Z,947.4
2019-03-20T04:15:37.300Z,947.5
2019-03-20T04:16:37.298Z,947.5
2019-03-20T04:17:37.198Z,947.5
2019-03-20T04:18:37.123Z,947.5
2019-03-20T04:19:37.067Z,947.4
2019-03-20T04:20:36.995Z,947.4
2019-03-20T04:21:36.883Z,947.6
2019-03-20T04:22:37.227Z,947.5
2019-03-20T04:23:37.152Z,947.4
2019-03-20T04:24:37.076Z,947.6
2019-03-20T04:25:36.998Z,947.5
2019-03-20T04:26:36.910Z,947.6
2019-03-20T04:27:36.833Z,947.4
2019-03-20T04:28:36.752Z,947.5
2019-03-20T04:29:36.664Z,947.6
2019-03-20T04:30:36.580Z,947.5
2019-03-20T04:31:36.518Z,947.5
2019-03-20T04:32:36.928Z,947.5
2019-03-20T04:33:36.822Z,947.5
2019-03-20T04:34:36.747Z,947.6
2019-03-20T04:35:36.637Z,947.5
2019-03-20T04:36:48.980Z,947.5
2019-03-20T04:37:48.902Z,947.7
2019-03-20T04:38:48.786Z,947.6
2019-03-20T04:39:48.676Z,947.7
2019-03-20T04:40:48.574Z,947.7
2019-03-20T04:41:48.512Z,947.5
2019-03-20T04:42:48.965Z,947.6
2019-03-20T04:43:48.870Z,947.7
2019-03-20T04:44:48.776Z,947.7
2019-03-20T04:45:48.666Z,947.6
2019-03-20T04:46:48.550Z,947.7
2019-03-20T04:47:48.458Z,947.7
2019-03-20T04:48:48.346Z,947.7
2019-03-20T04:49:48.224Z,947.6
2019-03-20T04:50:48.120Z,947.6
2019-03-20T04:51:48.000Z,947.6
2019-03-20T04:52:48.325Z,947.7
2019-03-20T04:53:48.210Z,947.7
2019-03-20T04:54:48.110Z,947.7
2019-03-20T04:55:48.006Z,947.7
2019-03-20T04:56:47.906Z,947.7
2019-03-20T04:57:47.836Z,947.8
2019-03-20T04:58:47.729Z,947.7
2019-03-20T04:59:47.606Z,946.1
2019-03-20T05:00:47.560Z,947.7
2019-03-20T05:01:47.458Z,947.7
2019-03-20T05:02:47.844Z,947.6
2019-03-20T05:03:47.720Z,947.6
2019-03-20T05:04:47.614Z,947.7
2019-03-20T05:05:47.506Z,947.7
2019-03-20T05:06:59.580Z,947.8
2019-03-20T05:07:59.489Z,947.7
2019-03-20T05:08:59.397Z,947.8
2019-03-20T05:09:59.132Z,947.6
2019-03-20T05:10:59.026Z,947.6
2019-03-20T05:11:58.912Z,947.8
2019-03-20T05:12:59.222Z,947.8
2019-03-20T05:13:59.144Z,947.8
2019-03-20T05:15:02.107Z,947.8
2019-03-20T05:16:02.007Z,947.9
2019-03-20T05:17:01.968Z,947.8
2019-03-20T05:18:01.861Z,947.4
2019-03-20T05:19:01.786Z,947.9
2019-03-20T05:20:01.685Z,947.9
2019-03-20T05:21:01.600Z,947.9
2019-03-20T05:22:01.496Z,947.9
2019-03-20T05:23:01.866Z,947.9
2019-03-20T05:24:01.744Z,947.9
2019-03-20T05:25:01.660Z,947.9
2019-03-20T05:26:01.616Z,948
2019-03-20T05:27:01.517Z,948.1
2019-03-20T05:28:01.411Z,948
2019-03-20T05:29:01.292Z,948
2019-03-20T05:30:01.230Z,948.1
2019-03-20T05:31:01.130Z,948.1
2019-03-20T05:32:01.016Z,948
2019-03-20T05:33:01.364Z,948.2
2019-03-20T05:34:01.249Z,947.5
2019-03-20T05:35:01.230Z,948.2
2019-03-20T05:36:01.167Z,947.6
2019-03-20T05:37:11.651Z,948.2
2019-03-20T05:38:11.523Z,947.5
2019-03-20T05:39:11.412Z,947.5
2019-03-20T05:40:11.327Z,947.2
2019-03-20T05:41:11.245Z,948.4
2019-03-20T05:42:11.135Z,948
2019-03-20T05:43:11.458Z,948.3
2019-03-20T05:44:11.344Z,948.4
2019-03-20T05:45:11.223Z,948.3
2019-03-20T05:46:11.124Z,948.4
2019-03-20T05:47:11.024Z,948.4
2019-03-20T05:48:10.919Z,948.4
2019-03-20T05:49:10.793Z,948.3
2019-03-20T05:50:10.723Z,948.4
2019-03-20T05:51:10.642Z,948.5
2019-03-20T05:52:10.533Z,948.4
2019-03-20T05:53:10.868Z,948.4
2019-03-20T05:54:10.759Z,948.4
2019-03-20T05:55:10.641Z,948.5
2019-03-20T05:56:10.545Z,948.4
2019-03-20T05:57:13.017Z,948.5
2019-03-20T05:58:12.904Z,948.5
2019-03-20T05:59:12.803Z,948.5
2019-03-20T06:00:12.681Z,948.6
2019-03-20T06:01:12.583Z,948.6
2019-03-20T06:02:12.518Z,948.5
2019-03-20T06:03:12.839Z,948.6
2019-03-20T06:04:12.713Z,948.6
2019-03-20T06:05:12.620Z,948.5
2019-03-20T06:06:12.502Z,948.4
2019-03-20T06:07:22.801Z,948.7
2019-03-20T06:08:22.746Z,948.6
2019-03-20T06:09:22.643Z,948.6
2019-03-20T06:10:22.560Z,948.6
2019-03-20T06:11:22.447Z,948.7
2019-03-20T06:12:22.387Z,948.7
2019-03-20T06:13:22.702Z,946.8
2019-03-20T06:14:22.598Z,948.7
2019-03-20T06:15:24.964Z,948.6
2019-03-20T06:16:24.867Z,948.8
2019-03-20T06:17:24.807Z,948.8
2019-03-20T06:18:24.705Z,948.8
2019-03-20T06:19:24.605Z,948.9
2019-03-20T06:20:24.509Z,948.8
2019-03-20T06:21:24.429Z,948.9
2019-03-20T06:22:24.304Z,948.8
2019-03-20T06:23:24.639Z,948.8
2019-03-20T06:24:24.527Z,948.9
2019-03-20T06:25:24.432Z,948.8
2019-03-20T06:26:24.309Z,948.7
2019-03-20T06:27:24.219Z,948.8
2019-03-20T06:28:24.130Z,948.8
2019-03-20T06:29:24.017Z,948.8
2019-03-20T06:30:23.917Z,949
2019-03-20T06:31:23.803Z,948.9
2019-03-20T06:32:23.710Z,949
2019-03-20T06:33:24.049Z,948.8
2019-03-20T06:34:23.960Z,949
2019-03-20T06:35:23.854Z,949
2019-03-20T06:36:23.777Z,948.9
2019-03-20T06:37:33.709Z,948.9
2019-03-20T06:38:33.623Z,949
2019-03-20T06:39:33.526Z,949
2019-03-20T06:40:33.415Z,948.9
2019-03-20T06:41:33.335Z,949
2019-03-20T06:42:33.221Z,948.9
2019-03-20T06:43:33.586Z,949
2019-03-20T06:44:33.493Z,949
2019-03-20T06:45:33.379Z,949.1
2019-03-20T06:46:33.271Z,949
2019-03-20T06:47:33.170Z,948.9
2019-03-20T06:48:33.120Z,949
2019-03-20T06:49:33.043Z,949
2019-03-20T06:50:32.930Z,949
2019-03-20T06:51:32.903Z,949
2019-03-20T06:52:32.793Z,948.6
2019-03-20T06:53:33.113Z,948.8
2019-03-20T06:54:32.995Z,949
2019-03-20T06:55:32.919Z,949.1
2019-03-20T06:56:32.835Z,949.2
2019-03-20T06:57:32.721Z,949.2
2019-03-20T06:58:32.619Z,949
2019-03-20T06:59:32.517Z,949.1
2019-03-20T07:00:32.428Z,949
2019-03-20T07:01:32.339Z,949.1
2019-03-20T07:02:32.231Z,949
2019-03-20T07:03:32.558Z,949.2
2019-03-20T07:04:32.442Z,949.1
2019-03-20T07:05:32.341Z,949.2
2019-03-20T07:06:32.245Z,949.2
2019-03-20T07:07:44.745Z,949.2
2019-03-20T07:08:44.646Z,949.2
2019-03-20T07:09:44.523Z,949.2
2019-03-20T07:10:44.442Z,949.3
2019-03-20T07:11:44.330Z,949.3
2019-03-20T07:12:44.233Z,949.3
2019-03-20T07:13:44.536Z,949.2
2019-03-20T07:14:44.424Z,949.2
2019-03-20T07:15:44.334Z,949.3
2019-03-20T07:16:44.255Z,949.3
2019-03-20T07:17:44.147Z,949.3
2019-03-20T07:18:44.100Z,949.3
2019-03-20T07:19:43.986Z,949.3
2019-03-20T07:20:43.935Z,949.2
2019-03-20T07:21:43.825Z,949.2
2019-03-20T07:22:43.712Z,949.3
2019-03-20T07:23:44.061Z,948.2
2019-03-20T07:24:43.965Z,949.3
2019-03-20T07:25:43.843Z,949.3
2019-03-20T07:26:43.784Z,949.4
2019-03-20T07:27:43.708Z,949.3
2019-03-20T07:28:43.631Z,949.3
2019-03-20T07:29:43.525Z,949.4
2019-03-20T07:30:43.419Z,949.4
2019-03-20T07:31:43.340Z,949.4
2019-03-20T07:32:43.229Z,949.3
2019-03-20T07:33:43.670Z,949.3
2019-03-20T07:34:43.586Z,949.4
2019-03-20T07:35:43.495Z,949.3
2019-03-20T07:36:43.419Z,949.3
2019-03-20T07:37:43.313Z,949.2
2019-03-20T07:38:43.218Z,949.2
2019-03-20T07:39:43.120Z,949.4
2019-03-20T07:40:43.028Z,949.4
2019-03-20T07:41:42.952Z,949.3
2019-03-20T07:42:42.833Z,949.3
2019-03-20T07:43:43.225Z,949.4
2019-03-20T07:44:43.112Z,949.4
2019-03-20T07:45:43.001Z,949.5
2019-03-20T07:46:42.905Z,949.5
2019-03-20T07:47:42.818Z,949.4
2019-03-20T07:48:42.719Z,949.5
2019-03-20T07:49:42.625Z,949.5
2019-03-20T07:50:42.795Z,949.3
2019-03-20T07:51:42.690Z,949.4
2019-03-20T07:52:42.594Z,949.5
2019-03-20T07:53:42.945Z,949.5
2019-03-20T07:54:42.848Z,949.5
2019-03-20T07:55:42.740Z,949.5
2019-03-20T07:56:42.663Z,949.5
2019-03-20T07:57:42.574Z,949.5
2019-03-20T07:58:42.468Z,949.5
2019-03-20T07:59:42.355Z,949.4
2019-03-20T08:00:42.239Z,949.5
2019-03-20T08:01:42.147Z,949.4
2019-03-20T08:02:42.059Z,949.3
2019-03-20T08:03:42.398Z,949.5
2019-03-20T08:04:42.312Z,949.6
2019-03-20T08:05:42.198Z,949.5
2019-03-20T08:06:42.091Z,949.4
2019-03-20T08:07:42.020Z,949.5
2019-03-20T08:08:41.958Z,949.5
2019-03-20T08:09:41.855Z,949.5
2019-03-20T08:10:41.765Z,949.5
2019-03-20T08:11:41.680Z,949.4
2019-03-20T08:12:41.580Z,949.5
2019-03-20T08:13:41.906Z,949.5
2019-03-20T08:14:41.800Z,949.5
2019-03-20T08:15:41.695Z,949.5
2019-03-20T08:16:41.591Z,949.5
2019-03-20T08:17:41.645Z,949.5
2019-03-20T08:18:41.550Z,949.3
2019-03-20T08:19:41.464Z,949.3
2019-03-20T08:20:41.336Z,949.3
2019-03-20T08:21:41.226Z,949.4
2019-03-20T08:22:41.150Z,949.5
2019-03-20T08:23:41.472Z,949.5
2019-03-20T08:24:41.362Z,949.5
2019-03-20T08:25:41.253Z,949.5
2019-03-20T08:26:41.164Z,949.4
2019-03-20T08:27:41.070Z,949.5
2019-03-20T08:28:40.971Z,949.5
2019-03-20T08:29:40.886Z,949.4
2019-03-20T08:30:40.785Z,949.3
2019-03-20T08:31:40.664Z,949.4
2019-03-20T08:32:40.551Z,949.5
2019-03-20T08:33:40.858Z,949.4
2019-03-20T08:34:40.774Z,949.5
2019-03-20T08:35:40.678Z,949.4
2019-03-20T08:36:40.587Z,949.5
2019-03-20T08:37:40.529Z,949.5
2019-03-20T08:38:40.422Z,949.4
2019-03-20T08:39:40.316Z,949.4
2019-03-20T08:40:40.241Z,949.4
2019-03-20T08:41:40.132Z,949.3
2019-03-20T08:42:40.024Z,949.4
2019-03-20T08:43:40.360Z,949.3
2019-03-20T08:44:40.265Z,949.4
2019-03-20T08:45:40.174Z,949.4
2019-03-20T08:46:40.060Z,949.4
2019-03-20T08:47:39.971Z,949.5
2019-03-20T08:48:39.890Z,949.5
2019-03-20T08:49:39.788Z,949.5
2019-03-20T08:50:39.718Z,949.3
2019-03-20T08:51:39.600Z,949.5
2019-03-20T08:52:39.568Z,949.3
2019-03-20T08:53:39.880Z,949.5
2019-03-20T08:54:39.761Z,949.3
2019-03-20T08:55:39.667Z,949.4
2019-03-20T08:56:39.666Z,949.2
2019-03-20T08:57:39.568Z,949.3
2019-03-20T08:58:39.486Z,949.3
2019-03-20T08:59:39.385Z,949.2
2019-03-20T09:00:39.299Z,949.4
2019-03-20T09:01:39.224Z,949.4
2019-03-20T09:02:39.134Z,949.4
2019-03-20T09:03:39.448Z,949.4
2019-03-20T09:04:39.388Z,949.4
2019-03-20T09:05:39.288Z,949.4
2019-03-20T09:06:39.223Z,949.3
2019-03-20T09:07:48.542Z,949.3
2019-03-20T09:08:48.430Z,949.4
2019-03-20T09:09:50.698Z,949.5
2019-03-20T09:10:50.749Z,949.5
2019-03-20T09:11:50.657Z,949.4
2019-03-20T09:12:50.568Z,949.5
2019-03-20T09:13:50.858Z,949.4
2019-03-20T09:14:50.765Z,949.5
2019-03-20T09:15:50.642Z,949.3
2019-03-20T09:16:50.549Z,949.3
2019-03-20T09:17:50.432Z,949.5
2019-03-20T09:18:50.317Z,949.5
2019-03-20T09:19:50.222Z,949.5
2019-03-20T09:20:50.120Z,949.5
2019-03-20T09:21:50.038Z,949.5
2019-03-20T09:22:49.936Z,949.5
2019-03-20T09:23:50.276Z,949.5
2019-03-20T09:24:50.173Z,949.4
2019-03-20T09:25:50.325Z,949
2019-03-20T09:26:50.268Z,949.5
2019-03-20T09:27:50.189Z,949.4
2019-03-20T09:28:50.083Z,949.4
2019-03-20T09:29:49.973Z,949.5
2019-03-20T09:30:49.845Z,948.9
2019-03-20T09:31:49.757Z,949.4
2019-03-20T09:32:49.687Z,949.5
2019-03-20T09:33:50.467Z,949.5
2019-03-20T09:34:50.361Z,949.3
2019-03-20T09:35:50.290Z,949.5
2019-03-20T09:36:50.205Z,949.5
2019-03-20T09:37:53.583Z,949.5
2019-03-20T09:38:53.490Z,949.4
2019-03-20T09:39:53.388Z,949.5
2019-03-20T09:40:53.284Z,949.4
2019-03-20T09:41:53.178Z,949.3
2019-03-20T09:42:53.142Z,949.5
2019-03-20T09:43:53.474Z,949.5
2019-03-20T09:44:53.376Z,949.4
2019-03-20T09:45:53.290Z,949.5
2019-03-20T09:46:53.181Z,949.4
2019-03-20T09:47:53.103Z,949.5
2019-03-20T09:48:53.034Z,949.5
2019-03-20T09:49:52.936Z,948
2019-03-20T09:50:52.851Z,949.5
2019-03-20T09:51:52.771Z,949.5
2019-03-20T09:52:52.684Z,949.5
2019-03-20T09:53:53.012Z,949.5
2019-03-20T09:54:52.928Z,949.4
2019-03-20T09:55:52.836Z,949.4
2019-03-20T09:56:52.726Z,949.4
2019-03-20T09:57:52.640Z,949.4
2019-03-20T09:58:52.576Z,949.3
2019-03-20T09:59:52.521Z,949.5
2019-03-20T10:00:52.423Z,949.5
2019-03-20T10:01:52.303Z,949.4
2019-03-20T10:02:52.182Z,949.4
2019-03-20T10:03:52.503Z,949.3
2019-03-20T10:04:52.440Z,949.5
2019-03-20T10:05:52.391Z,949.6
2019-03-20T10:06:52.279Z,949.5
2019-03-20T10:07:52.228Z,949.4
2019-03-20T10:08:55.387Z,949.6
2019-03-20T10:09:55.313Z,949.4
2019-03-20T10:10:55.211Z,949.6
2019-03-20T10:11:57.380Z,949.5
2019-03-20T10:12:57.450Z,949.6
2019-03-20T10:13:57.765Z,949.5
2019-03-20T10:14:57.701Z,949.4
2019-03-20T10:15:57.585Z,949.6
2019-03-20T10:16:57.485Z,949.6
2019-03-20T10:17:57.425Z,949.5
2019-03-20T10:18:57.319Z,949.3
2019-03-20T10:19:57.197Z,949.5
2019-03-20T10:20:57.104Z,949.5
2019-03-20T10:21:57.037Z,949.4
2019-03-20T10:22:56.965Z,949.5
2019-03-20T10:23:57.259Z,949.5
2019-03-20T10:24:57.136Z,949.5
2019-03-20T10:25:57.035Z,949.5
2019-03-20T10:26:56.935Z,949.5
2019-03-20T10:27:56.819Z,949.4
2019-03-20T10:28:56.709Z,949.4
2019-03-20T10:29:56.655Z,949.4
2019-03-20T10:30:56.575Z,949.3
2019-03-20T10:31:56.476Z,949.5
2019-03-20T10:32:56.381Z,949.5
2019-03-20T10:33:56.701Z,949.3
2019-03-20T10:34:56.606Z,949.3
2019-03-20T10:35:56.485Z,949.4
2019-03-20T10:36:56.383Z,949.5
2019-03-20T10:37:56.280Z,949.5
2019-03-20T10:39:07.994Z,949.5
2019-03-20T10:40:07.928Z,949.5
2019-03-20T10:41:07.878Z,949.5
2019-03-20T10:42:07.787Z,949.5
2019-03-20T10:43:07.693Z,949.5
2019-03-20T10:44:07.996Z,949.5
2019-03-20T10:45:07.892Z,949.5
2019-03-20T10:46:07.776Z,949.4
2019-03-20T10:47:07.695Z,949.5
2019-03-20T10:48:07.586Z,949.5
2019-03-20T10:49:07.499Z,949.5
2019-03-20T10:50:07.436Z,949.5
2019-03-20T10:51:07.346Z,949.5
2019-03-20T10:52:07.259Z,949.3
2019-03-20T10:53:07.197Z,949.5
2019-03-20T10:54:07.639Z,949.6
2019-03-20T10:55:07.547Z,949.5
2019-03-20T10:56:07.458Z,949.5
2019-03-20T10:57:07.380Z,949.5
2019-03-20T10:58:07.268Z,949.5
2019-03-20T10:59:07.251Z,949.5
2019-03-20T11:00:07.150Z,949.5
2019-03-20T11:01:07.041Z,949.4
2019-03-20T11:02:06.934Z,949.3
2019-03-20T11:03:06.846Z,948.8
2019-03-20T11:04:07.187Z,949.5
2019-03-20T11:05:07.118Z,949.5
2019-03-20T11:06:07.091Z,949.5
2019-03-20T11:07:07.005Z,949.6
2019-03-20T11:08:06.927Z,949.5
2019-03-20T11:09:19.456Z,949.5
2019-03-20T11:10:19.444Z,949.4
2019-03-20T11:11:28.245Z,949.6
2019-03-20T11:12:28.164Z,949.6
2019-03-20T11:13:28.104Z,949.3
2019-03-20T11:14:28.444Z,949.6
2019-03-20T11:15:30.607Z,949.5
2019-03-20T11:16:30.525Z,949.5
2019-03-20T11:17:30.410Z,949.5
2019-03-20T11:18:30.377Z,949.6
2019-03-20T11:19:30.350Z,949.5
2019-03-20T11:20:30.256Z,949.6
2019-03-20T11:21:30.142Z,949.6
2019-03-20T11:22:30.048Z,949.5
2019-03-20T11:23:29.970Z,949.6
2019-03-20T11:24:30.317Z,949.5
2019-03-20T11:25:30.221Z,949.3
2019-03-20T11:26:30.143Z,949.5
2019-03-20T11:27:30.042Z,949.4
2019-03-20T11:28:30.004Z,949.5
2019-03-20T11:29:29.939Z,949.5
2019-03-20T11:30:29.857Z,949.5
2019-03-20T11:31:29.765Z,949.6
2019-03-20T11:32:29.674Z,949.5
2019-03-20T11:33:29.584Z,949.6
2019-03-20T11:34:30.011Z,949.7
2019-03-20T11:35:29.930Z,949.7
2019-03-20T11:36:29.902Z,949.5
2019-03-20T11:37:29.792Z,949.5
2019-03-20T11:38:29.680Z,949.6
2019-03-20T11:39:30.951Z,949.5
2019-03-20T11:40:30.887Z,949.6
2019-03-20T11:41:30.794Z,949.7
2019-03-20T11:42:30.670Z,949.6
2019-03-20T11:43:30.564Z,949.5
2019-03-20T11:44:30.888Z,949.6
2019-03-20T11:45:30.831Z,949.7
2019-03-20T11:46:30.720Z,949.6
2019-03-20T11:47:30.615Z,949.6
2019-03-20T11:48:33.156Z,949.5
2019-03-20T11:49:33.169Z,949.6
2019-03-20T11:50:33.144Z,949.6
2019-03-20T11:51:33.050Z,949.7
2019-03-20T11:52:32.950Z,949.7
2019-03-20T11:53:32.857Z,949.6
2019-03-20T11:54:33.185Z,949.5
2019-03-20T11:55:33.081Z,949.6
2019-03-20T11:56:33.071Z,949.6
2019-03-20T11:57:32.958Z,949.6
2019-03-20T11:58:32.852Z,949.6
2019-03-20T11:59:32.774Z,949.6
2019-03-20T12:00:32.678Z,949.7
2019-03-20T12:01:32.583Z,949.6
2019-03-20T12:02:32.514Z,949.6
2019-03-20T12:03:32.442Z,948.2
2019-03-20T12:04:32.764Z,949.5
2019-03-20T12:05:32.674Z,949.6
2019-03-20T12:06:32.570Z,949.5
2019-03-20T12:07:32.444Z,949.6
2019-03-20T12:08:32.350Z,949.5
2019-03-20T12:09:42.183Z,949.5
2019-03-20T12:10:42.069Z,949.5
2019-03-20T12:11:47.114Z,949.5
2019-03-20T12:12:47.036Z,949.4
2019-03-20T12:13:46.967Z,948.9
2019-03-20T12:14:47.294Z,949.5
2019-03-20T12:15:47.233Z,949.5
2019-03-20T12:16:47.132Z,949.5
2019-03-20T12:17:47.043Z,949.5
2019-03-20T12:18:46.993Z,949.5
2019-03-20T12:19:46.888Z,949.5
2019-03-20T12:20:46.847Z,949.6
2019-03-20T12:21:46.770Z,949.5
2019-03-20T12:22:46.687Z,949.4
2019-03-20T12:23:46.638Z,949.5
2019-03-20T12:24:46.986Z,949.4
2019-03-20T12:25:46.886Z,949.4
2019-03-20T12:26:46.781Z,949.5
2019-03-20T12:27:46.677Z,949.5
2019-03-20T12:28:46.543Z,949.4
2019-03-20T12:29:46.469Z,949.4
2019-03-20T12:30:46.370Z,949.4
2019-03-20T12:31:46.260Z,949.4
2019-03-20T12:32:46.208Z,949.5
2019-03-20T12:33:46.137Z,949.5
2019-03-20T12:34:46.486Z,949.4
2019-03-20T12:35:46.378Z,949.3
2019-03-20T12:36:46.272Z,949.3
2019-03-20T12:37:46.248Z,949.5
2019-03-20T12:38:46.197Z,948
2019-03-20T12:39:54.415Z,949.4
2019-03-20T12:40:54.342Z,949.4
2019-03-20T12:41:54.082Z,949.3
2019-03-20T12:42:53.981Z,949.3
2019-03-20T12:43:53.882Z,949.3
2019-03-20T12:44:54.248Z,949.3
2019-03-20T12:45:54.148Z,949.3
2019-03-20T12:46:54.046Z,949.4
2019-03-20T12:47:53.945Z,949.2
2019-03-20T12:48:53.856Z,949.3
2019-03-20T12:49:53.773Z,949.4
2019-03-20T12:50:53.758Z,947.9
2019-03-20T12:51:53.673Z,949.2
2019-03-20T12:52:53.636Z,949.3
2019-03-20T12:53:53.556Z,949.3
2019-03-20T12:54:53.882Z,949.3
2019-03-20T12:55:53.855Z,949.3
2019-03-20T12:56:53.737Z,949.2
2019-03-20T12:57:53.619Z,949.3